sensor_id;sensor_type;location;lat;lon;timestamp;P1;durP1;ratioP1;P2;durP2;ratioP2
75689;SDS011;64303;53.118;9.044;2023-04-24T00:01:48;8.30;;;7.70;;
75689;SDS011;64303;53.118;9.044;2023-04-24T00:04:15;6.28;;;5.68;;
75689;SDS011;64303;53.118;9.044;2023-04-24T00:06:42;8.35;;;7.75;;
75689;SDS011;64303;53.118;9.044;2023-04-24T00:09:09;5.07;;;4.53;;
75689;SDS011;64303;53.118;9.044;2023-04-24T00:11:37;7.47;;;6.70;;
75689;SDS011;64303;53.118;9.044;2023-04-24T00:14:04;5.00;;;4.22;;
75689;SDS011;64303;53.118;9.044;2023-04-24T00:16:30;6.40;;;5.93;;
75689;SDS011;64303;53.118;9.044;2023-04-24T00:18:57;7.32;;;6.82;;
75689;SDS011;64303;53.118;9.044;2023-04-24T00:21:26;7.85;;;7.25;;
75689;SDS011;64303;53.118;9.044;2023-04-24T00:23:52;7.40;;;6.90;;
75689;SDS011;64303;53.118;9.044;2023-04-24T00:26:19;6.32;;;5.82;;
75689;SDS011;64303;53.118;9.044;2023-04-24T00:28:47;5.25;;;4.80;;
75689;SDS011;64303;53.118;9.044;2023-04-24T00:31:14;6.60;;;6.03;;
75689;SDS011;64303;53.118;9.044;2023-04-24T00:33:40;7.60;;;7.00;;
75689;SDS011;64303;53.118;9.044;2023-04-24T00:36:08;7.88;;;7.38;;
75689;SDS011;64303;53.118;9.044;2023-04-24T00:38:34;7.68;;;7.18;;
75689;SDS011;64303;53.118;9.044;2023-04-24T00:41:02;5.90;;;5.47;;
75689;SDS011;64303;53.118;9.044;2023-04-24T00:43:29;6.63;;;6.15;;
75689;SDS011;64303;53.118;9.044;2023-04-24T00:45:57;5.72;;;5.22;;
75689;SDS011;64303;53.118;9.044;2023-04-24T00:48:24;6.55;;;6.05;;
75689;SDS011;64303;53.118;9.044;2023-04-24T00:50:52;7.30;;;6.75;;
75689;SDS011;64303;53.118;9.044;2023-04-24T00:53:18;6.60;;;6.10;;
75689;SDS011;64303;53.118;9.044;2023-04-24T00:55:46;8.98;;;8.27;;
75689;SDS011;64303;53.118;9.044;2023-04-24T00:58:12;6.13;;;5.72;;
75689;SDS011;64303;53.118;9.044;2023-04-24T01:00:40;6.20;;;5.70;;
75689;SDS011;64303;53.118;9.044;2023-04-24T01:03:08;7.20;;;6.60;;
75689;SDS011;64303;53.118;9.044;2023-04-24T01:05:36;6.82;;;6.32;;
75689;SDS011;64303;53.118;9.044;2023-04-24T01:08:03;7.07;;;6.47;;
75689;SDS011;64303;53.118;9.044;2023-04-24T01:10:30;7.30;;;6.80;;
75689;SDS011;64303;53.118;9.044;2023-04-24T01:12:57;5.80;;;5.40;;
75689;SDS011;64303;53.118;9.044;2023-04-24T01:15:25;9.85;;;9.25;;
75689;SDS011;64303;53.118;9.044;2023-04-24T01:17:51;7.80;;;6.38;;
75689;SDS011;64303;53.118;9.044;2023-04-24T01:20:21;5.18;;;4.70;;
75689;SDS011;64303;53.118;9.044;2023-04-24T01:22:51;7.60;;;7.10;;
75689;SDS011;64303;53.118;9.044;2023-04-24T01:25:18;6.55;;;6.05;;
75689;SDS011;64303;53.118;9.044;2023-04-24T01:27:44;7.57;;;7.00;;
75689;SDS011;64303;53.118;9.044;2023-04-24T01:30:12;8.13;;;7.50;;
75689;SDS011;64303;53.118;9.044;2023-04-24T01:32:39;6.63;;;6.10;;
75689;SDS011;64303;53.118;9.044;2023-04-24T01:35:07;6.60;;;6.10;;
75689;SDS011;64303;53.118;9.044;2023-04-24T01:37:35;6.70;;;6.20;;
75689;SDS011;64303;53.118;9.044;2023-04-24T01:40:04;6.75;;;6.15;;
75689;SDS011;64303;53.118;9.044;2023-04-24T01:42:32;10.27;;;9.48;;
75689;SDS011;64303;53.118;9.044;2023-04-24T01:45:01;6.55;;;6.05;;
75689;SDS011;64303;53.118;9.044;2023-04-24T01:47:29;5.70;;;4.18;;
75689;SDS011;64303;53.118;9.044;2023-04-24T01:49:57;6.40;;;5.80;;
75689;SDS011;64303;53.118;9.044;2023-04-24T01:52:23;7.38;;;6.88;;
75689;SDS011;64303;53.118;9.044;2023-04-24T01:54:50;8.30;;;7.70;;
75689;SDS011;64303;53.118;9.044;2023-04-24T01:57:19;10.10;;;9.50;;
75689;SDS011;64303;53.118;9.044;2023-04-24T01:59:46;6.75;;;6.25;;
75689;SDS011;64303;53.118;9.044;2023-04-24T02:02:13;7.40;;;6.90;;
75689;SDS011;64303;53.118;9.044;2023-04-24T02:04:40;7.22;;;6.72;;
75689;SDS011;64303;53.118;9.044;2023-04-24T02:07:07;5.47;;;5.07;;
75689;SDS011;64303;53.118;9.044;2023-04-24T02:09:34;6.70;;;6.28;;
75689;SDS011;64303;53.118;9.044;2023-04-24T02:12:00;4.15;;;3.85;;
75689;SDS011;64303;53.118;9.044;2023-04-24T02:14:29;6.75;;;6.28;;
75689;SDS011;64303;53.118;9.044;2023-04-24T02:16:55;7.05;;;6.55;;
75689;SDS011;64303;53.118;9.044;2023-04-24T02:19:23;8.00;;;7.45;;
75689;SDS011;64303;53.118;9.044;2023-04-24T02:21:49;7.32;;;6.82;;
75689;SDS011;64303;53.118;9.044;2023-04-24T02:24:16;5.43;;;4.97;;
75689;SDS011;64303;53.118;9.044;2023-04-24T02:26:43;5.93;;;5.53;;
75689;SDS011;64303;53.118;9.044;2023-04-24T02:29:10;6.30;;;5.82;;
75689;SDS011;64303;53.118;9.044;2023-04-24T02:31:38;6.72;;;6.22;;
75689;SDS011;64303;53.118;9.044;2023-04-24T02:34:05;6.75;;;6.20;;
75689;SDS011;64303;53.118;9.044;2023-04-24T02:36:31;4.68;;;4.13;;
75689;SDS011;64303;53.118;9.044;2023-04-24T02:38:58;7.40;;;6.90;;
75689;SDS011;64303;53.118;9.044;2023-04-24T02:41:26;5.72;;;5.32;;
75689;SDS011;64303;53.118;9.044;2023-04-24T02:43:57;6.70;;;6.20;;
75689;SDS011;64303;53.118;9.044;2023-04-24T02:46:23;7.82;;;7.32;;
75689;SDS011;64303;53.118;9.044;2023-04-24T02:48:51;6.55;;;6.05;;
75689;SDS011;64303;53.118;9.044;2023-04-24T02:51:18;6.18;;;5.78;;
75689;SDS011;64303;53.118;9.044;2023-04-24T02:53:45;6.35;;;5.93;;
75689;SDS011;64303;53.118;9.044;2023-04-24T02:56:11;8.75;;;8.18;;
75689;SDS011;64303;53.118;9.044;2023-04-24T02:58:38;7.82;;;7.32;;
75689;SDS011;64303;53.118;9.044;2023-04-24T03:01:05;6.88;;;6.40;;
75689;SDS011;64303;53.118;9.044;2023-04-24T03:03:32;8.07;;;7.47;;
75689;SDS011;64303;53.118;9.044;2023-04-24T03:05:59;7.88;;;7.38;;
75689;SDS011;64303;53.118;9.044;2023-04-24T03:08:27;6.20;;;5.70;;
75689;SDS011;64303;53.118;9.044;2023-04-24T03:10:53;7.05;;;6.38;;
75689;SDS011;64303;53.118;9.044;2023-04-24T03:13:20;6.32;;;5.93;;
75689;SDS011;64303;53.118;9.044;2023-04-24T03:15:47;7.32;;;6.82;;
75689;SDS011;64303;53.118;9.044;2023-04-24T03:18:13;8.55;;;7.95;;
75689;SDS011;64303;53.118;9.044;2023-04-24T03:20:40;8.02;;;7.45;;
75689;SDS011;64303;53.118;9.044;2023-04-24T03:23:09;7.18;;;6.68;;
75689;SDS011;64303;53.118;9.044;2023-04-24T03:25:36;4.10;;;3.67;;
75689;SDS011;64303;53.118;9.044;2023-04-24T03:28:03;6.97;;;6.47;;
75689;SDS011;64303;53.118;9.044;2023-04-24T03:30:42;6.40;;;5.78;;
75689;SDS011;64303;53.118;9.044;2023-04-24T03:33:10;7.85;;;7.25;;
75689;SDS011;64303;53.118;9.044;2023-04-24T03:35:44;8.23;;;7.70;;
75689;SDS011;64303;53.118;9.044;2023-04-24T03:38:13;7.22;;;6.63;;
75689;SDS011;64303;53.118;9.044;2023-04-24T03:41:09;5.97;;;5.47;;
75689;SDS011;64303;53.118;9.044;2023-04-24T03:43:44;7.70;;;7.13;;
75689;SDS011;64303;53.118;9.044;2023-04-24T03:46:11;7.25;;;6.75;;
75689;SDS011;64303;53.118;9.044;2023-04-24T03:48:43;4.10;;;3.60;;
75689;SDS011;64303;53.118;9.044;2023-04-24T03:51:10;6.63;;;6.18;;
75689;SDS011;64303;53.118;9.044;2023-04-24T03:53:41;7.63;;;7.13;;
75689;SDS011;64303;53.118;9.044;2023-04-24T03:56:08;6.00;;;5.50;;
75689;SDS011;64303;53.118;9.044;2023-04-24T03:58:35;6.22;;;5.78;;
75689;SDS011;64303;53.118;9.044;2023-04-24T04:01:02;6.82;;;6.40;;
75689;SDS011;64303;53.118;9.044;2023-04-24T04:03:34;5.72;;;5.22;;
75689;SDS011;64303;53.118;9.044;2023-04-24T04:06:01;7.18;;;6.50;;
75689;SDS011;64303;53.118;9.044;2023-04-24T04:08:28;5.78;;;5.38;;
75689;SDS011;64303;53.118;9.044;2023-04-24T04:10:57;5.90;;;5.40;;
75689;SDS011;64303;53.118;9.044;2023-04-24T04:13:24;4.32;;;3.95;;
75689;SDS011;64303;53.118;9.044;2023-04-24T04:15:50;4.63;;;4.32;;
75689;SDS011;64303;53.118;9.044;2023-04-24T04:18:17;6.70;;;6.30;;
75689;SDS011;64303;53.118;9.044;2023-04-24T04:20:44;6.03;;;5.63;;
75689;SDS011;64303;53.118;9.044;2023-04-24T04:23:13;5.85;;;5.45;;
75689;SDS011;64303;53.118;9.044;2023-04-24T04:25:52;5.82;;;5.43;;
75689;SDS011;64303;53.118;9.044;2023-04-24T04:28:25;7.05;;;6.65;;
75689;SDS011;64303;53.118;9.044;2023-04-24T04:30:52;5.43;;;4.95;;
75689;SDS011;64303;53.118;9.044;2023-04-24T04:33:19;8.50;;;6.35;;
75689;SDS011;64303;53.118;9.044;2023-04-24T04:35:46;4.97;;;4.68;;
75689;SDS011;64303;53.118;9.044;2023-04-24T04:38:14;5.75;;;5.25;;
75689;SDS011;64303;53.118;9.044;2023-04-24T04:40:56;5.82;;;5.45;;
75689;SDS011;64303;53.118;9.044;2023-04-24T04:43:29;6.95;;;6.50;;
75689;SDS011;64303;53.118;9.044;2023-04-24T04:45:57;6.68;;;6.18;;
75689;SDS011;64303;53.118;9.044;2023-04-24T04:48:26;5.45;;;5.05;;
75689;SDS011;64303;53.118;9.044;2023-04-24T04:50:54;5.60;;;5.20;;
75689;SDS011;64303;53.118;9.044;2023-04-24T04:53:22;6.05;;;5.60;;
75689;SDS011;64303;53.118;9.044;2023-04-24T04:55:48;5.72;;;5.32;;
75689;SDS011;64303;53.118;9.044;2023-04-24T04:58:17;5.25;;;4.85;;
75689;SDS011;64303;53.118;9.044;2023-04-24T05:00:46;5.05;;;4.63;;
75689;SDS011;64303;53.118;9.044;2023-04-24T05:03:25;3.33;;;2.95;;
75689;SDS011;64303;53.118;9.044;2023-04-24T05:05:58;5.60;;;5.20;;
75689;SDS011;64303;53.118;9.044;2023-04-24T05:08:25;5.45;;;4.95;;
75689;SDS011;64303;53.118;9.044;2023-04-24T05:10:52;5.40;;;5.00;;
75689;SDS011;64303;53.118;9.044;2023-04-24T05:13:19;6.05;;;5.57;;
75689;SDS011;64303;53.118;9.044;2023-04-24T05:15:47;6.72;;;6.15;;
75689;SDS011;64303;53.118;9.044;2023-04-24T05:18:14;6.40;;;5.90;;
75689;SDS011;64303;53.118;9.044;2023-04-24T05:20:42;6.78;;;6.15;;
75689;SDS011;64303;53.118;9.044;2023-04-24T05:23:09;6.25;;;5.85;;
75689;SDS011;64303;53.118;9.044;2023-04-24T05:25:38;7.05;;;6.43;;
75689;SDS011;64303;53.118;9.044;2023-04-24T05:28:09;8.05;;;7.50;;
75689;SDS011;64303;53.118;9.044;2023-04-24T05:30:36;6.40;;;5.80;;
75689;SDS011;64303;53.118;9.044;2023-04-24T05:33:04;8.77;;;8.18;;
75689;SDS011;64303;53.118;9.044;2023-04-24T05:35:33;7.85;;;7.35;;
75689;SDS011;64303;53.118;9.044;2023-04-24T05:38:00;8.10;;;7.40;;
75689;SDS011;64303;53.118;9.044;2023-04-24T05:40:27;7.22;;;6.70;;
75689;SDS011;64303;53.118;9.044;2023-04-24T05:42:54;4.35;;;3.78;;
75689;SDS011;64303;53.118;9.044;2023-04-24T05:45:22;7.72;;;7.22;;
75689;SDS011;64303;53.118;9.044;2023-04-24T05:47:49;6.57;;;6.13;;
75689;SDS011;64303;53.118;9.044;2023-04-24T05:50:18;6.90;;;6.30;;
75689;SDS011;64303;53.118;9.044;2023-04-24T05:52:46;6.97;;;6.38;;
75689;SDS011;64303;53.118;9.044;2023-04-24T05:55:22;7.45;;;6.75;;
75689;SDS011;64303;53.118;9.044;2023-04-24T05:57:50;6.00;;;5.40;;
75689;SDS011;64303;53.118;9.044;2023-04-24T06:00:17;7.43;;;6.90;;
75689;SDS011;64303;53.118;9.044;2023-04-24T06:02:50;7.72;;;6.97;;
75689;SDS011;64303;53.118;9.044;2023-04-24T06:05:19;8.02;;;7.43;;
75689;SDS011;64303;53.118;9.044;2023-04-24T06:07:45;7.47;;;6.88;;
75689;SDS011;64303;53.118;9.044;2023-04-24T06:10:12;8.10;;;7.40;;
75689;SDS011;64303;53.118;9.044;2023-04-24T06:12:41;8.38;;;7.57;;
75689;SDS011;64303;53.118;9.044;2023-04-24T06:15:14;8.80;;;5.40;;
75689;SDS011;64303;53.118;9.044;2023-04-24T06:17:57;8.90;;;8.27;;
75689;SDS011;64303;53.118;9.044;2023-04-24T06:20:26;10.45;;;9.75;;
75689;SDS011;64303;53.118;9.044;2023-04-24T06:22:53;7.88;;;7.28;;
75689;SDS011;64303;53.118;9.044;2023-04-24T06:25:19;8.55;;;7.95;;
75689;SDS011;64303;53.118;9.044;2023-04-24T06:27:46;8.82;;;8.13;;
75689;SDS011;64303;53.118;9.044;2023-04-24T06:30:13;9.93;;;8.98;;
75689;SDS011;64303;53.118;9.044;2023-04-24T06:32:39;12.50;;;11.52;;
75689;SDS011;64303;53.118;9.044;2023-04-24T06:35:07;9.70;;;8.90;;
75689;SDS011;64303;53.118;9.044;2023-04-24T06:37:36;6.82;;;6.13;;
75689;SDS011;64303;53.118;9.044;2023-04-24T06:42:30;9.70;;;8.80;;
75689;SDS011;64303;53.118;9.044;2023-04-24T06:44:56;9.85;;;8.95;;
75689;SDS011;64303;53.118;9.044;2023-04-24T06:47:23;14.45;;;13.35;;
75689;SDS011;64303;53.118;9.044;2023-04-24T06:49:50;11.55;;;10.63;;
75689;SDS011;64303;53.118;9.044;2023-04-24T06:52:17;12.90;;;11.90;;
75689;SDS011;64303;53.118;9.044;2023-04-24T06:54:45;14.70;;;13.50;;
75689;SDS011;64303;53.118;9.044;2023-04-24T06:57:12;9.65;;;7.35;;
75689;SDS011;64303;53.118;9.044;2023-04-24T06:59:39;13.50;;;11.35;;
75689;SDS011;64303;53.118;9.044;2023-04-24T07:02:06;12.07;;;10.88;;
75689;SDS011;64303;53.118;9.044;2023-04-24T07:04:32;13.32;;;12.13;;
75689;SDS011;64303;53.118;9.044;2023-04-24T07:06:59;9.95;;;8.25;;
75689;SDS011;64303;53.118;9.044;2023-04-24T07:09:26;13.05;;;11.88;;
75689;SDS011;64303;53.118;9.044;2023-04-24T07:11:54;12.82;;;11.55;;
75689;SDS011;64303;53.118;9.044;2023-04-24T07:14:21;13.98;;;12.68;;
75689;SDS011;64303;53.118;9.044;2023-04-24T07:16:48;14.77;;;13.52;;
75689;SDS011;64303;53.118;9.044;2023-04-24T07:19:15;13.73;;;12.43;;
75689;SDS011;64303;53.118;9.044;2023-04-24T07:21:42;15.25;;;13.75;;
75689;SDS011;64303;53.118;9.044;2023-04-24T07:24:08;14.82;;;13.35;;
75689;SDS011;64303;53.118;9.044;2023-04-24T07:26:36;12.82;;;11.65;;
75689;SDS011;64303;53.118;9.044;2023-04-24T07:29:04;14.43;;;13.02;;
75689;SDS011;64303;53.118;9.044;2023-04-24T07:31:31;12.77;;;11.45;;
75689;SDS011;64303;53.118;9.044;2023-04-24T07:33:58;15.63;;;14.23;;
75689;SDS011;64303;53.118;9.044;2023-04-24T07:36:24;12.63;;;11.43;;
75689;SDS011;64303;53.118;9.044;2023-04-24T07:38:51;12.82;;;11.63;;
75689;SDS011;64303;53.118;9.044;2023-04-24T07:41:18;15.02;;;13.75;;
75689;SDS011;64303;53.118;9.044;2023-04-24T07:43:45;12.93;;;11.68;;
75689;SDS011;64303;53.118;9.044;2023-04-24T07:46:13;13.63;;;12.35;;
75689;SDS011;64303;53.118;9.044;2023-04-24T07:48:40;12.57;;;11.40;;
75689;SDS011;64303;53.118;9.044;2023-04-24T07:51:07;14.57;;;13.25;;
75689;SDS011;64303;53.118;9.044;2023-04-24T07:53:35;13.57;;;12.18;;
75689;SDS011;64303;53.118;9.044;2023-04-24T07:56:02;13.88;;;12.48;;
75689;SDS011;64303;53.118;9.044;2023-04-24T07:58:28;13.20;;;11.85;;
75689;SDS011;64303;53.118;9.044;2023-04-24T08:00:55;11.32;;;10.35;;
75689;SDS011;64303;53.118;9.044;2023-04-24T08:03:23;13.02;;;11.68;;
75689;SDS011;64303;53.118;9.044;2023-04-24T08:08:17;12.90;;;10.48;;
75689;SDS011;64303;53.118;9.044;2023-04-24T08:10:43;13.75;;;12.48;;
75689;SDS011;64303;53.118;9.044;2023-04-24T08:13:10;14.23;;;12.93;;
75689;SDS011;64303;53.118;9.044;2023-04-24T08:15:37;13.25;;;11.90;;
75689;SDS011;64303;53.118;9.044;2023-04-24T08:18:04;12.05;;;10.93;;
75689;SDS011;64303;53.118;9.044;2023-04-24T08:20:32;13.15;;;12.00;;
75689;SDS011;64303;53.118;9.044;2023-04-24T08:22:59;11.95;;;10.88;;
75689;SDS011;64303;53.118;9.044;2023-04-24T08:25:25;12.30;;;10.00;;
75689;SDS011;64303;53.118;9.044;2023-04-24T08:27:52;14.00;;;12.60;;
75689;SDS011;64303;53.118;9.044;2023-04-24T08:30:19;10.85;;;9.75;;
75689;SDS011;64303;53.118;9.044;2023-04-24T08:32:47;12.80;;;11.60;;
75689;SDS011;64303;53.118;9.044;2023-04-24T08:35:13;12.65;;;11.55;;
75689;SDS011;64303;53.118;9.044;2023-04-24T08:37:42;13.27;;;11.93;;
75689;SDS011;64303;53.118;9.044;2023-04-24T08:40:10;13.80;;;12.43;;
75689;SDS011;64303;53.118;9.044;2023-04-24T08:42:39;12.63;;;11.32;;
75689;SDS011;64303;53.118;9.044;2023-04-24T08:45:08;12.98;;;11.45;;
75689;SDS011;64303;53.118;9.044;2023-04-24T08:47:36;13.27;;;11.88;;
75689;SDS011;64303;53.118;9.044;2023-04-24T08:50:04;14.20;;;12.90;;
75689;SDS011;64303;53.118;9.044;2023-04-24T08:52:32;14.30;;;12.90;;
75689;SDS011;64303;53.118;9.044;2023-04-24T08:55:00;13.43;;;12.07;;
75689;SDS011;64303;53.118;9.044;2023-04-24T08:57:28;13.90;;;12.50;;
75689;SDS011;64303;53.118;9.044;2023-04-24T08:59:56;14.20;;;12.80;;
75689;SDS011;64303;53.118;9.044;2023-04-24T09:02:25;15.68;;;14.18;;
75689;SDS011;64303;53.118;9.044;2023-04-24T09:04:52;15.63;;;14.13;;
75689;SDS011;64303;53.118;9.044;2023-04-24T09:07:19;13.80;;;12.40;;
75689;SDS011;64303;53.118;9.044;2023-04-24T09:09:46;16.92;;;15.32;;
75689;SDS011;64303;53.118;9.044;2023-04-24T09:12:14;17.02;;;13.68;;
75689;SDS011;64303;53.118;9.044;2023-04-24T09:17:08;16.20;;;14.15;;
75689;SDS011;64303;53.118;9.044;2023-04-24T09:19:34;16.98;;;15.27;;
75689;SDS011;64303;53.118;9.044;2023-04-24T09:22:04;16.70;;;15.10;;
75689;SDS011;64303;53.118;9.044;2023-04-24T09:24:32;14.38;;;10.32;;
75689;SDS011;64303;53.118;9.044;2023-04-24T09:27:00;14.88;;;13.25;;
75689;SDS011;64303;53.118;9.044;2023-04-24T09:29:28;16.05;;;13.07;;
75689;SDS011;64303;53.118;9.044;2023-04-24T09:31:57;16.05;;;14.40;;
75689;SDS011;64303;53.118;9.044;2023-04-24T09:34:24;15.40;;;13.77;;
75689;SDS011;64303;53.118;9.044;2023-04-24T09:36:53;15.77;;;14.23;;
75689;SDS011;64303;53.118;9.044;2023-04-24T09:39:20;16.30;;;14.35;;
75689;SDS011;64303;53.118;9.044;2023-04-24T09:41:47;15.73;;;13.65;;
75689;SDS011;64303;53.118;9.044;2023-04-24T09:46:43;15.57;;;13.18;;
75689;SDS011;64303;53.118;9.044;2023-04-24T09:49:12;13.45;;;12.15;;
75689;SDS011;64303;53.118;9.044;2023-04-24T09:51:40;15.05;;;13.32;;
75689;SDS011;64303;53.118;9.044;2023-04-24T09:54:13;16.20;;;13.32;;
75689;SDS011;64303;53.118;9.044;2023-04-24T09:56:42;12.85;;;11.43;;
75689;SDS011;64303;53.118;9.044;2023-04-24T09:59:10;13.73;;;12.32;;
75689;SDS011;64303;53.118;9.044;2023-04-24T10:01:37;15.52;;;13.98;;
75689;SDS011;64303;53.118;9.044;2023-04-24T10:04:08;15.18;;;13.60;;
75689;SDS011;64303;53.118;9.044;2023-04-24T10:06:42;14.98;;;10.68;;
75689;SDS011;64303;53.118;9.044;2023-04-24T10:09:09;15.00;;;13.50;;
75689;SDS011;64303;53.118;9.044;2023-04-24T10:11:37;15.70;;;14.05;;
75689;SDS011;64303;53.118;9.044;2023-04-24T10:14:03;14.20;;;12.75;;
75689;SDS011;64303;53.118;9.044;2023-04-24T10:16:31;12.35;;;11.20;;
75689;SDS011;64303;53.118;9.044;2023-04-24T10:18:58;14.15;;;12.75;;
75689;SDS011;64303;53.118;9.044;2023-04-24T10:21:27;12.43;;;9.45;;
75689;SDS011;64303;53.118;9.044;2023-04-24T10:23:55;13.30;;;12.00;;
75689;SDS011;64303;53.118;9.044;2023-04-24T10:26:22;13.73;;;12.40;;
75689;SDS011;64303;53.118;9.044;2023-04-24T10:28:49;16.05;;;14.65;;
75689;SDS011;64303;53.118;9.044;2023-04-24T10:31:16;12.77;;;11.57;;
75689;SDS011;64303;53.118;9.044;2023-04-24T10:33:43;10.63;;;9.60;;
75689;SDS011;64303;53.118;9.044;2023-04-24T10:36:10;10.52;;;8.95;;
75689;SDS011;64303;53.118;9.044;2023-04-24T10:41:07;13.70;;;12.15;;
75689;SDS011;64303;53.118;9.044;2023-04-24T10:43:35;10.68;;;9.60;;
75689;SDS011;64303;53.118;9.044;2023-04-24T10:46:03;12.65;;;11.52;;
75689;SDS011;64303;53.118;9.044;2023-04-24T10:48:31;11.50;;;10.40;;
75689;SDS011;64303;53.118;9.044;2023-04-24T10:50:58;13.10;;;12.00;;
75689;SDS011;64303;53.118;9.044;2023-04-24T10:53:27;11.18;;;10.18;;
75689;SDS011;64303;53.118;9.044;2023-04-24T10:55:58;10.15;;;9.23;;
75689;SDS011;64303;53.118;9.044;2023-04-24T10:58:35;13.23;;;12.13;;
75689;SDS011;64303;53.118;9.044;2023-04-24T11:01:03;12.38;;;11.07;;
75689;SDS011;64303;53.118;9.044;2023-04-24T11:03:31;13.13;;;11.98;;
75689;SDS011;64303;53.118;9.044;2023-04-24T11:06:00;12.20;;;11.20;;
75689;SDS011;64303;53.118;9.044;2023-04-24T11:08:29;11.40;;;10.30;;
75689;SDS011;64303;53.118;9.044;2023-04-24T11:10:59;11.30;;;10.15;;
75689;SDS011;64303;53.118;9.044;2023-04-24T11:13:31;13.25;;;12.10;;
75689;SDS011;64303;53.118;9.044;2023-04-24T11:16:32;10.45;;;9.55;;
75689;SDS011;64303;53.118;9.044;2023-04-24T11:19:00;11.27;;;10.23;;
75689;SDS011;64303;53.118;9.044;2023-04-24T11:21:30;10.85;;;7.75;;
75689;SDS011;64303;53.118;9.044;2023-04-24T11:23:57;10.40;;;9.45;;
75689;SDS011;64303;53.118;9.044;2023-04-24T11:26:25;10.13;;;9.30;;
75689;SDS011;64303;53.118;9.044;2023-04-24T11:29:05;13.27;;;12.27;;
75689;SDS011;64303;53.118;9.044;2023-04-24T11:31:37;10.32;;;9.43;;
75689;SDS011;64303;53.118;9.044;2023-04-24T11:34:07;11.60;;;10.68;;
75689;SDS011;64303;53.118;9.044;2023-04-24T11:36:35;10.63;;;9.75;;
75689;SDS011;64303;53.118;9.044;2023-04-24T11:39:02;7.43;;;6.57;;
75689;SDS011;64303;53.118;9.044;2023-04-24T11:41:30;13.27;;;12.13;;
75689;SDS011;64303;53.118;9.044;2023-04-24T11:43:57;12.27;;;11.25;;
75689;SDS011;64303;53.118;9.044;2023-04-24T11:46:27;11.38;;;10.38;;
75689;SDS011;64303;53.118;9.044;2023-04-24T11:48:55;12.10;;;11.20;;
75689;SDS011;64303;53.118;9.044;2023-04-24T11:51:22;11.48;;;10.57;;
75689;SDS011;64303;53.118;9.044;2023-04-24T11:53:49;11.80;;;10.70;;
75689;SDS011;64303;53.118;9.044;2023-04-24T11:56:17;10.15;;;9.25;;
75689;SDS011;64303;53.118;9.044;2023-04-24T11:58:46;8.10;;;7.30;;
75689;SDS011;64303;53.118;9.044;2023-04-24T12:01:13;10.45;;;9.65;;
75689;SDS011;64303;53.118;9.044;2023-04-24T12:03:40;10.35;;;9.45;;
75689;SDS011;64303;53.118;9.044;2023-04-24T12:06:10;10.05;;;9.23;;
75689;SDS011;64303;53.118;9.044;2023-04-24T12:08:37;10.15;;;9.25;;
75689;SDS011;64303;53.118;9.044;2023-04-24T12:11:05;10.43;;;9.60;;
75689;SDS011;64303;53.118;9.044;2023-04-24T12:13:33;10.57;;;9.73;;
75689;SDS011;64303;53.118;9.044;2023-04-24T12:16:02;12.38;;;11.02;;
75689;SDS011;64303;53.118;9.044;2023-04-24T12:18:30;13.85;;;12.75;;
75689;SDS011;64303;53.118;9.044;2023-04-24T12:23:42;10.35;;;9.55;;
75689;SDS011;64303;53.118;9.044;2023-04-24T12:26:09;7.32;;;6.22;;
75689;SDS011;64303;53.118;9.044;2023-04-24T12:28:36;7.80;;;6.40;;
75689;SDS011;64303;53.118;9.044;2023-04-24T12:31:06;11.57;;;10.57;;
75689;SDS011;64303;53.118;9.044;2023-04-24T12:33:33;9.25;;;8.50;;
75689;SDS011;64303;53.118;9.044;2023-04-24T12:36:01;8.55;;;7.88;;
75689;SDS011;64303;53.118;9.044;2023-04-24T12:38:28;9.93;;;9.18;;
75689;SDS011;64303;53.118;9.044;2023-04-24T12:41:02;7.13;;;6.25;;
75689;SDS011;64303;53.118;9.044;2023-04-24T12:43:30;8.68;;;7.97;;
75689;SDS011;64303;53.118;9.044;2023-04-24T12:45:57;9.48;;;8.77;;
75689;SDS011;64303;53.118;9.044;2023-04-24T12:48:25;10.60;;;9.50;;
75689;SDS011;64303;53.118;9.044;2023-04-24T12:50:52;7.97;;;7.28;;
75689;SDS011;64303;53.118;9.044;2023-04-24T12:53:19;9.18;;;8.48;;
75689;SDS011;64303;53.118;9.044;2023-04-24T12:55:45;6.65;;;5.95;;
75689;SDS011;64303;53.118;9.044;2023-04-24T12:58:17;6.78;;;6.07;;
75689;SDS011;64303;53.118;9.044;2023-04-24T13:00:45;6.93;;;4.90;;
75689;SDS011;64303;53.118;9.044;2023-04-24T13:03:12;8.70;;;8.00;;
75689;SDS011;64303;53.118;9.044;2023-04-24T13:05:40;9.23;;;8.43;;
75689;SDS011;64303;53.118;9.044;2023-04-24T13:08:06;8.25;;;7.53;;
75689;SDS011;64303;53.118;9.044;2023-04-24T13:10:33;8.40;;;7.80;;
75689;SDS011;64303;53.118;9.044;2023-04-24T13:13:00;7.95;;;7.15;;
75689;SDS011;64303;53.118;9.044;2023-04-24T13:15:27;6.20;;;4.93;;
75689;SDS011;64303;53.118;9.044;2023-04-24T13:17:53;9.38;;;8.68;;
75689;SDS011;64303;53.118;9.044;2023-04-24T13:20:20;9.15;;;8.45;;
75689;SDS011;64303;53.118;9.044;2023-04-24T13:22:48;8.90;;;7.90;;
75689;SDS011;64303;53.118;9.044;2023-04-24T13:25:15;8.20;;;7.47;;
75689;SDS011;64303;53.118;9.044;2023-04-24T13:27:43;8.57;;;7.78;;
75689;SDS011;64303;53.118;9.044;2023-04-24T13:30:10;9.15;;;8.20;;
75689;SDS011;64303;53.118;9.044;2023-04-24T13:32:37;8.73;;;7.82;;
75689;SDS011;64303;53.118;9.044;2023-04-24T13:35:04;10.15;;;9.35;;
75689;SDS011;64303;53.118;9.044;2023-04-24T13:37:31;8.77;;;7.97;;
75689;SDS011;64303;53.118;9.044;2023-04-24T13:39:59;10.73;;;9.68;;
75689;SDS011;64303;53.118;9.044;2023-04-24T13:42:26;10.07;;;9.13;;
75689;SDS011;64303;53.118;9.044;2023-04-24T13:44:53;11.90;;;9.98;;
75689;SDS011;64303;53.118;9.044;2023-04-24T13:47:20;12.05;;;10.93;;
75689;SDS011;64303;53.118;9.044;2023-04-24T13:49:46;10.95;;;9.90;;
75689;SDS011;64303;53.118;9.044;2023-04-24T13:52:13;14.88;;;11.18;;
75689;SDS011;64303;53.118;9.044;2023-04-24T13:54:40;12.23;;;10.45;;
75689;SDS011;64303;53.118;9.044;2023-04-24T13:57:08;13.38;;;11.57;;
75689;SDS011;64303;53.118;9.044;2023-04-24T14:02:02;11.75;;;10.82;;
75689;SDS011;64303;53.118;9.044;2023-04-24T14:04:28;11.90;;;10.77;;
75689;SDS011;64303;53.118;9.044;2023-04-24T14:06:55;8.98;;;8.13;;
75689;SDS011;64303;53.118;9.044;2023-04-24T14:09:22;12.20;;;8.38;;
75689;SDS011;64303;53.118;9.044;2023-04-24T14:11:48;11.85;;;10.57;;
75689;SDS011;64303;53.118;9.044;2023-04-24T14:14:17;12.75;;;10.27;;
75689;SDS011;64303;53.118;9.044;2023-04-24T14:16:43;11.63;;;9.27;;
75689;SDS011;64303;53.118;9.044;2023-04-24T14:19:10;13.73;;;12.52;;
75689;SDS011;64303;53.118;9.044;2023-04-24T14:21:37;9.15;;;7.57;;
75689;SDS011;64303;53.118;9.044;2023-04-24T14:24:03;11.45;;;10.35;;
75689;SDS011;64303;53.118;9.044;2023-04-24T14:26:30;11.10;;;9.55;;
75689;SDS011;64303;53.118;9.044;2023-04-24T14:28:57;12.00;;;9.88;;
75689;SDS011;64303;53.118;9.044;2023-04-24T14:31:26;12.15;;;11.02;;
75689;SDS011;64303;53.118;9.044;2023-04-24T14:33:52;14.32;;;12.85;;
75689;SDS011;64303;53.118;9.044;2023-04-24T14:36:19;11.30;;;10.15;;
75689;SDS011;64303;53.118;9.044;2023-04-24T14:38:46;14.20;;;11.75;;
75689;SDS011;64303;53.118;9.044;2023-04-24T14:41:12;15.13;;;10.95;;
75689;SDS011;64303;53.118;9.044;2023-04-24T14:43:39;12.90;;;10.27;;
75689;SDS011;64303;53.118;9.044;2023-04-24T14:46:06;12.63;;;11.05;;
75689;SDS011;64303;53.118;9.044;2023-04-24T14:48:34;12.40;;;11.18;;
75689;SDS011;64303;53.118;9.044;2023-04-24T14:51:01;14.55;;;12.75;;
75689;SDS011;64303;53.118;9.044;2023-04-24T14:53:27;12.70;;;10.75;;
75689;SDS011;64303;53.118;9.044;2023-04-24T14:55:54;10.32;;;9.27;;
75689;SDS011;64303;53.118;9.044;2023-04-24T14:58:21;9.50;;;8.65;;